Time;durP1;ratioP1;P1;durP2;ratioP2;P2;SDS_P1;SDS_P2;PMS_P1;PMS_P2;Temp;Humidity;BMP_temperature;BMP_pressure;BME280_temperature;BME280_humidity;BME280_pressure;Samples;Min_cycle;Max_cycle;Signal;HPM_P1;HPM_P2
2022/06/24 00:02:13;;;;;;;2.90;2.63;;;;;;;;;;6256279;22;20183;-84
2022/06/24 00:04:41;;;;;;;0.20;0.20;;;;;;;;;;6255356;22;20207;-84
2022/06/24 00:07:17;;;;;;;0.37;0.37;;;;;;;;;;6153141;23;20212;-83
2022/06/24 00:09:45;;;;;;;12.13;2.70;;;;;;;;;;6152766;23;20191;-83
2022/06/24 00:12:16;;;;;;;1.70;1.43;;;;;;;;;;6255196;22;20187;-84
2022/06/24 00:14:46;;;;;;;3.13;2.90;;;;;;;;;;6255942;22;20186;-83
2022/06/24 00:17:15;;;;;;;3.40;3.10;;;;;;;;;;6152757;23;20246;-83
2022/06/24 00:19:53;;;;;;;3.50;3.30;;;;;;;;;;6255730;22;20183;-84
2022/06/24 00:22:22;;;;;;;4.33;2.73;;;;;;;;;;6255970;22;20270;-83
2022/06/24 00:25:07;;;;;;;1.53;1.50;;;;;;;;;;6255837;22;20195;-83
2022/06/24 00:27:37;;;;;;;0.97;0.70;;;;;;;;;;6256101;22;20220;-84
2022/06/24 00:30:09;;;;;;;2.10;2.00;;;;;;;;;;6152909;23;20185;-84
2022/06/24 00:32:38;;;;;;;2.03;1.83;;;;;;;;;;6255730;22;20247;-85
2022/06/24 00:35:13;;;;;;;0.60;0.60;;;;;;;;;;6255412;22;20177;-86
2022/06/24 00:37:42;;;;;;;1.07;1.07;;;;;;;;;;6255745;22;20221;-86
2022/06/24 00:40:24;;;;;;;1.50;1.40;;;;;;;;;;6255076;22;20182;-86
2022/06/24 00:42:54;;;;;;;0.50;0.50;;;;;;;;;;6254367;22;20186;-86
2022/06/24 00:45:26;;;;;;;1.27;1.27;;;;;;;;;;6255554;22;20199;-86
2022/06/24 00:47:55;;;;;;;1.53;1.50;;;;;;;;;;6254936;22;20186;-86
2022/06/24 00:50:25;;;;;;;0.87;0.87;;;;;;;;;;6255877;22;20186;-86
2022/06/24 00:52:54;;;;;;;0.53;0.53;;;;;;;;;;6152498;23;20262;-86
2022/06/24 00:55:25;;;;;;;4.60;4.23;;;;;;;;;;6255708;22;20184;-86
2022/06/24 00:57:55;;;;;;;6.00;4.23;;;;;;;;;;6152301;23;20172;-86
2022/06/24 01:00:24;;;;;;;2.83;2.30;;;;;;;;;;6254909;22;20217;-86
2022/06/24 01:02:57;;;;;;;3.63;2.80;;;;;;;;;;6255239;22;20179;-86
2022/06/24 01:05:26;;;;;;;2.00;1.90;;;;;;;;;;6152285;23;20196;-86
2022/06/24 01:07:54;;;;;;;1.60;1.50;;;;;;;;;;6255111;22;20211;-87
2022/06/24 01:10:23;;;;;;;2.13;2.03;;;;;;;;;;6255384;22;20180;-87
2022/06/24 01:12:51;;;;;;;10.93;9.93;;;;;;;;;;6255128;22;20187;-86
2022/06/24 01:15:21;;;;;;;3.20;2.93;;;;;;;;;;6255441;22;20174;-86
2022/06/24 01:17:50;;;;;;;2.47;2.37;;;;;;;;;;6255570;22;20259;-86
2022/06/24 01:20:19;;;;;;;4.50;4.20;;;;;;;;;;6255177;22;20180;-85
2022/06/24 01:22:49;;;;;;;0.97;0.97;;;;;;;;;;6255193;22;20181;-85
2022/06/24 01:25:17;;;;;;;1.63;1.63;;;;;;;;;;6254910;22;20206;-85
2022/06/24 01:27:45;;;;;;;2.73;2.63;;;;;;;;;;6255391;22;20186;-85
2022/06/24 01:30:14;;;;;;;0.97;0.97;;;;;;;;;;6255407;22;20182;-85
2022/06/24 01:32:42;;;;;;;0.80;0.80;;;;;;;;;;6254808;22;20178;-84
2022/06/24 01:35:13;;;;;;;2.00;1.87;;;;;;;;;;6255118;22;20175;-85
2022/06/24 01:37:42;;;;;;;3.23;2.93;;;;;;;;;;6255327;22;20267;-85
2022/06/24 01:40:13;;;;;;;13.30;10.97;;;;;;;;;;6255125;22;20265;-85
2022/06/24 01:42:41;;;;;;;2.63;2.43;;;;;;;;;;6254984;22;20214;-85
2022/06/24 01:45:10;;;;;;;3.60;3.30;;;;;;;;;;6151931;23;20196;-85
2022/06/24 01:47:38;;;;;;;3.23;2.57;;;;;;;;;;6255327;22;20175;-85
2022/06/24 01:50:07;;;;;;;11.23;8.20;;;;;;;;;;6254814;22;20179;-85
2022/06/24 01:52:36;;;;;;;3.47;3.27;;;;;;;;;;6254736;22;20182;-85
2022/06/24 01:55:05;;;;;;;4.93;4.43;;;;;;;;;;6254683;22;20182;-85
2022/06/24 01:57:35;;;;;;;0.53;0.53;;;;;;;;;;6151959;23;20175;-85
2022/06/24 02:00:04;;;;;;;19.03;14.67;;;;;;;;;;6254582;22;20219;-85
2022/06/24 02:02:33;;;;;;;26.60;23.40;;;;;;;;;;6254795;22;20266;-85
2022/06/24 02:05:03;;;;;;;29.57;26.33;;;;;;;;;;6151255;23;20227;-85
2022/06/24 02:07:31;;;;;;;27.40;24.50;;;;;;;;;;6254908;22;20183;-86
2022/06/24 02:15:33;;;;;;;18.20;12.13;;;;;;;;;;6254485;22;20178;-84
2022/06/24 02:18:01;;;;;;;7.60;6.63;;;;;;;;;;6254425;22;20186;-82
2022/06/24 02:20:30;;;;;;;0.30;0.30;;;;;;;;;;6254782;22;20177;-82
2022/06/24 02:22:58;;;;;;;0.30;0.30;;;;;;;;;;6254017;22;20180;-82
2022/06/24 02:25:27;;;;;;;0.30;0.30;;;;;;;;;;6254117;22;20228;-83
2022/06/24 02:27:56;;;;;;;0.30;0.30;;;;;;;;;;6254140;22;20245;-83
2022/06/24 02:30:26;;;;;;;0.30;0.30;;;;;;;;;;6254277;22;20192;-82
2022/06/24 02:32:54;;;;;;;0.30;0.30;;;;;;;;;;6254612;22;20184;-83
2022/06/24 02:35:23;;;;;;;0.30;0.30;;;;;;;;;;6254367;22;20181;-84
2022/06/24 02:37:51;;;;;;;0.30;0.30;;;;;;;;;;6254566;22;20206;-83
2022/06/24 02:43:12;;;;;;;0.30;0.30;;;;;;;;;;6254390;22;20190;-83
2022/06/24 02:45:40;;;;;;;0.30;0.30;;;;;;;;;;6254662;22;20194;-83
2022/06/24 02:48:09;;;;;;;0.30;0.30;;;;;;;;;;6254538;22;20181;-83
2022/06/24 02:50:41;;;;;;;0.30;0.30;;;;;;;;;;6254642;22;20186;-84
2022/06/24 02:53:14;;;;;;;0.30;0.30;;;;;;;;;;6254479;22;20202;-84
2022/06/24 02:55:43;;;;;;;0.30;0.30;;;;;;;;;;6254544;22;20182;-83
2022/06/24 02:58:13;;;;;;;0.30;0.30;;;;;;;;;;6253805;22;20224;-84
2022/06/24 03:00:42;;;;;;;0.30;0.30;;;;;;;;;;6254306;22;20202;-84
2022/06/24 03:03:11;;;;;;;0.30;0.30;;;;;;;;;;6253965;22;20285;-83
2022/06/24 03:05:40;;;;;;;0.30;0.30;;;;;;;;;;6150706;23;20190;-83
2022/06/24 03:08:09;;;;;;;0.30;0.30;;;;;;;;;;6254488;22;20184;-83
2022/06/24 03:10:37;;;;;;;0.30;0.30;;;;;;;;;;6253786;22;20186;-84
2022/06/24 03:13:06;;;;;;;0.30;0.30;;;;;;;;;;6254621;22;20187;-84
2022/06/24 03:15:35;;;;;;;0.23;0.23;;;;;;;;;;6150821;23;20171;-84
2022/06/24 03:18:04;;;;;;;0.20;0.20;;;;;;;;;;6254386;22;20182;-84
2022/06/24 03:20:32;;;;;;;0.30;0.30;;;;;;;;;;6150753;23;20220;-84
2022/06/24 03:23:01;;;;;;;0.30;0.30;;;;;;;;;;6254031;22;20189;-83
2022/06/24 03:25:29;;;;;;;0.30;0.30;;;;;;;;;;6254012;22;20217;-84
2022/06/24 03:27:58;;;;;;;0.30;0.30;;;;;;;;;;6254514;22;20187;-84
2022/06/24 03:30:26;;;;;;;0.30;0.30;;;;;;;;;;6253767;22;20182;-84
2022/06/24 03:32:56;;;;;;;0.30;0.30;;;;;;;;;;6150821;23;20216;-84
2022/06/24 03:35:24;;;;;;;0.30;0.30;;;;;;;;;;6254387;22;20174;-83
2022/06/24 03:37:53;;;;;;;0.30;0.30;;;;;;;;;;6255670;22;20180;-84
2022/06/24 03:40:22;;;;;;;0.30;0.30;;;;;;;;;;6255773;22;20181;-84
2022/06/24 03:42:50;;;;;;;0.30;0.30;;;;;;;;;;6255371;22;20178;-84
2022/06/24 03:45:19;;;;;;;0.30;0.30;;;;;;;;;;6152004;23;20195;-84
2022/06/24 03:47:47;;;;;;;0.23;0.23;;;;;;;;;;6255853;22;20181;-84
2022/06/24 03:50:17;;;;;;;0.23;0.23;;;;;;;;;;6152164;23;20246;-84
2022/06/24 03:52:45;;;;;;;0.37;0.37;;;;;;;;;;6255530;22;20204;-84
2022/06/24 03:55:14;;;;;;;0.30;0.30;;;;;;;;;;6255836;22;20223;-84
2022/06/24 03:57:42;;;;;;;0.30;0.30;;;;;;;;;;6256110;22;20172;-84
2022/06/24 04:00:11;;;;;;;0.30;0.30;;;;;;;;;;6255361;22;20215;-84
2022/06/24 04:02:40;;;;;;;0.30;0.30;;;;;;;;;;6255738;22;20182;-84
2022/06/24 04:05:13;;;;;;;0.30;0.30;;;;;;;;;;6255198;22;20193;-84
2022/06/24 04:07:43;;;;;;;0.30;0.30;;;;;;;;;;6255649;22;20265;-84
2022/06/24 04:10:12;;;;;;;0.30;0.30;;;;;;;;;;6255929;22;20227;-84
2022/06/24 04:12:40;;;;;;;0.30;0.30;;;;;;;;;;6255785;22;20182;-84
2022/06/24 04:15:15;;;;;;;0.30;0.30;;;;;;;;;;6255613;22;20188;-84
2022/06/24 04:17:44;;;;;;;0.30;0.30;;;;;;;;;;6255409;22;20177;-84
2022/06/24 04:20:13;;;;;;;0.20;0.20;;;;;;;;;;6255694;22;20178;-84
2022/06/24 04:22:41;;;;;;;0.20;0.20;;;;;;;;;;6255608;22;20179;-84
2022/06/24 04:25:12;;;;;;;0.30;0.30;;;;;;;;;;6255716;22;20192;-84
2022/06/24 04:27:41;;;;;;;0.30;0.30;;;;;;;;;;6254832;22;20274;-83
2022/06/24 04:30:11;;;;;;;0.27;0.27;;;;;;;;;;6255269;22;20186;-83
2022/06/24 04:32:39;;;;;;;0.30;0.30;;;;;;;;;;6151925;23;20182;-83
2022/06/24 04:35:08;;;;;;;0.30;0.30;;;;;;;;;;6254969;22;20185;-83
2022/06/24 04:37:37;;;;;;;0.20;0.20;;;;;;;;;;6255090;22;20181;-83
2022/06/24 04:40:07;;;;;;;0.30;0.30;;;;;;;;;;6255295;22;20186;-83
2022/06/24 04:42:36;;;;;;;0.30;0.30;;;;;;;;;;6255144;22;20190;-83
2022/06/24 04:45:09;;;;;;;0.30;0.30;;;;;;;;;;6150587;23;20237;-83
2022/06/24 04:47:44;;;;;;;0.20;0.20;;;;;;;;;;6149299;23;20236;-83
2022/06/24 04:50:12;;;;;;;0.30;0.30;;;;;;;;;;6150255;23;20182;-83
2022/06/24 04:52:44;;;;;;;0.30;0.30;;;;;;;;;;6150640;23;20170;-83
2022/06/24 04:55:12;;;;;;;0.30;0.30;;;;;;;;;;6255029;22;20174;-82
2022/06/24 04:57:42;;;;;;;0.30;0.30;;;;;;;;;;6251868;22;20244;-83
2022/06/24 05:00:11;;;;;;;0.30;0.30;;;;;;;;;;6252914;22;20204;-83
2022/06/24 05:02:41;;;;;;;0.23;0.23;;;;;;;;;;6255007;22;20208;-82
2022/06/24 05:05:10;;;;;;;0.30;0.30;;;;;;;;;;6252971;22;20431;-83
2022/06/24 05:07:38;;;;;;;0.30;0.30;;;;;;;;;;6254193;22;20198;-82
2022/06/24 05:10:07;;;;;;;2.53;2.40;;;;;;;;;;6278548;22;20178;-83
2022/06/24 05:12:36;;;;;;;0.30;0.30;;;;;;;;;;6254366;22;20182;-83
2022/06/24 05:15:06;;;;;;;0.30;0.30;;;;;;;;;;6252365;22;20237;-82
2022/06/24 05:17:35;;;;;;;0.30;0.30;;;;;;;;;;6252962;22;20176;-82
2022/06/24 05:20:07;;;;;;;0.20;0.20;;;;;;;;;;6151219;23;20233;-83
2022/06/24 05:22:41;;;;;;;0.30;0.30;;;;;;;;;;6254954;22;20239;-83
2022/06/24 05:25:13;;;;;;;0.30;0.30;;;;;;;;;;6151626;23;20179;-82
2022/06/24 05:27:41;;;;;;;0.73;0.73;;;;;;;;;;6151689;23;20199;-82
2022/06/24 05:30:12;;;;;;;0.30;0.30;;;;;;;;;;6254283;22;20187;-83
2022/06/24 05:32:40;;;;;;;0.30;0.30;;;;;;;;;;6253176;22;20183;-83
2022/06/24 05:35:12;;;;;;;0.30;0.30;;;;;;;;;;6254829;22;20245;-83
2022/06/24 05:37:41;;;;;;;0.80;0.80;;;;;;;;;;6254577;22;20174;-82
2022/06/24 05:40:10;;;;;;;0.30;0.30;;;;;;;;;;6254539;22;20189;-83
2022/06/24 05:42:38;;;;;;;0.30;0.30;;;;;;;;;;6254849;22;20185;-82
2022/06/24 05:45:07;;;;;;;1.53;1.53;;;;;;;;;;6151997;23;20182;-83
2022/06/24 05:47:37;;;;;;;0.30;0.30;;;;;;;;;;6151449;23;20189;-82
2022/06/24 05:50:06;;;;;;;0.30;0.30;;;;;;;;;;6254766;22;20186;-82
2022/06/24 05:55:21;;;;;;;0.30;0.30;;;;;;;;;;6254566;22;20181;-83
2022/06/24 05:57:49;;;;;;;0.30;0.30;;;;;;;;;;6254602;22;20174;-82
2022/06/24 06:00:17;;;;;;;0.30;0.30;;;;;;;;;;6254107;22;20210;-83
2022/06/24 06:02:47;;;;;;;0.20;0.20;;;;;;;;;;6254105;22;20173;-83
2022/06/24 06:05:16;;;;;;;0.20;0.20;;;;;;;;;;6151588;23;20254;-83
2022/06/24 06:07:44;;;;;;;0.20;0.20;;;;;;;;;;6254843;22;20242;-83
2022/06/24 06:10:13;;;;;;;0.20;0.20;;;;;;;;;;6254643;22;20182;-82
2022/06/24 06:12:41;;;;;;;0.20;0.20;;;;;;;;;;6254288;22;20188;-83
2022/06/24 06:15:10;;;;;;;0.20;0.20;;;;;;;;;;6254934;22;20177;-83
2022/06/24 06:17:39;;;;;;;0.30;0.30;;;;;;;;;;6254355;22;20179;-82
2022/06/24 06:20:09;;;;;;;0.30;0.30;;;;;;;;;;6254700;22;20251;-83
2022/06/24 06:22:37;;;;;;;0.30;0.30;;;;;;;;;;6254163;22;20172;-83
2022/06/24 06:25:06;;;;;;;0.30;0.30;;;;;;;;;;6254423;22;20183;-83
2022/06/24 06:27:36;;;;;;;0.20;0.20;;;;;;;;;;6151279;23;20221;-84
2022/06/24 06:30:07;;;;;;;0.20;0.20;;;;;;;;;;6253929;22;20202;-82
2022/06/24 06:32:36;;;;;;;0.20;0.20;;;;;;;;;;6254529;22;20177;-82
2022/06/24 06:35:05;;;;;;;0.27;0.27;;;;;;;;;;6151338;23;20181;-83
2022/06/24 06:37:35;;;;;;;0.23;0.23;;;;;;;;;;6254474;22;20176;-83
2022/06/24 06:40:04;;;;;;;0.20;0.20;;;;;;;;;;6254250;22;20204;-84
2022/06/24 06:42:32;;;;;;;0.20;0.20;;;;;;;;;;6254481;22;20259;-83
2022/06/24 06:45:13;;;;;;;0.30;0.30;;;;;;;;;;6253996;22;20188;-84
2022/06/24 06:47:42;;;;;;;0.20;0.20;;;;;;;;;;6254323;22;20291;-84
2022/06/24 06:50:16;;;;;;;0.20;0.20;;;;;;;;;;6254032;22;20212;-86
2022/06/24 06:52:46;;;;;;;0.20;0.20;;;;;;;;;;6254817;22;20183;-84
2022/06/24 06:55:14;;;;;;;0.20;0.20;;;;;;;;;;6246049;22;20180;-84
2022/06/24 06:57:43;;;;;;;0.20;0.20;;;;;;;;;;6253525;22;20182;-84
2022/06/24 07:00:13;;;;;;;0.27;0.27;;;;;;;;;;6251286;22;20229;-84
2022/06/24 07:02:42;;;;;;;4.13;4.03;;;;;;;;;;6251308;22;20180;-84
2022/06/24 07:05:14;;;;;;;0.20;0.20;;;;;;;;;;6252633;22;20220;-84
2022/06/24 07:07:43;;;;;;;0.20;0.20;;;;;;;;;;6149864;23;20191;-84
2022/06/24 07:10:16;;;;;;;0.30;0.30;;;;;;;;;;6253161;22;20193;-84
2022/06/24 07:12:45;;;;;;;0.20;0.20;;;;;;;;;;6254254;22;20186;-84
2022/06/24 07:15:16;;;;;;;0.20;0.20;;;;;;;;;;6254776;22;20177;-84
2022/06/24 07:17:44;;;;;;;0.20;0.20;;;;;;;;;;6255173;22;20179;-84
2022/06/24 07:20:13;;;;;;;0.27;0.27;;;;;;;;;;6151277;23;20176;-84
2022/06/24 07:22:42;;;;;;;0.20;0.20;;;;;;;;;;6254974;22;20185;-84
2022/06/24 07:25:20;;;;;;;0.60;0.60;;;;;;;;;;6254699;22;20182;-84
2022/06/24 07:27:50;;;;;;;0.20;0.20;;;;;;;;;;6254841;22;20198;-85
2022/06/24 07:30:19;;;;;;;0.20;0.20;;;;;;;;;;6255039;22;20182;-85
2022/06/24 07:32:47;;;;;;;0.20;0.20;;;;;;;;;;6255074;22;20211;-85
2022/06/24 07:35:16;;;;;;;0.20;0.20;;;;;;;;;;6255305;22;20262;-85
2022/06/24 07:38:08;;;;;;;0.20;0.20;;;;;;;;;;6253903;22;20196;-86
2022/06/24 07:40:41;;;;;;;0.20;0.20;;;;;;;;;;6254925;22;20188;-84
2022/06/24 07:43:09;;;;;;;0.20;0.20;;;;;;;;;;6254934;22;20186;-85
2022/06/24 07:45:39;;;;;;;0.20;0.20;;;;;;;;;;6151781;23;20232;-85
2022/06/24 07:48:07;;;;;;;0.20;0.20;;;;;;;;;;6254526;22;20309;-85
2022/06/24 07:50:36;;;;;;;0.30;0.30;;;;;;;;;;6150402;23;20173;-85
2022/06/24 07:53:08;;;;;;;0.20;0.20;;;;;;;;;;6254297;22;20176;-85
2022/06/24 07:58:29;;;;;;;0.20;0.20;;;;;;;;;;6151364;22;20171;-86
2022/06/24 08:01:02;;;;;;;0.30;0.30;;;;;;;;;;6254592;22;20230;-83
2022/06/24 08:03:40;;;;;;;0.30;0.30;;;;;;;;;;6253443;22;20290;-85
2022/06/24 08:06:08;;;;;;;0.20;0.20;;;;;;;;;;6254808;22;20179;-84
2022/06/24 08:08:37;;;;;;;0.20;0.20;;;;;;;;;;6254660;22;20283;-84
2022/06/24 08:11:07;;;;;;;0.20;0.20;;;;;;;;;;6254771;22;20190;-84
2022/06/24 08:13:37;;;;;;;0.20;0.20;;;;;;;;;;6254664;22;20186;-85
2022/06/24 08:16:05;;;;;;;0.30;0.30;;;;;;;;;;6254783;22;20178;-84
2022/06/24 08:18:34;;;;;;;0.20;0.20;;;;;;;;;;6254891;22;20178;-84
2022/06/24 08:21:02;;;;;;;0.20;0.20;;;;;;;;;;6254603;22;20232;-85
2022/06/24 08:23:31;;;;;;;0.30;0.30;;;;;;;;;;6254237;22;20183;-84
2022/06/24 08:25:59;;;;;;;0.20;0.20;;;;;;;;;;6151175;23;20212;-84
2022/06/24 08:28:29;;;;;;;0.30;0.30;;;;;;;;;;6254095;22;20202;-85
2022/06/24 08:30:58;;;;;;;0.20;0.20;;;;;;;;;;6254420;22;20190;-84
2022/06/24 08:33:33;;;;;;;0.20;0.20;;;;;;;;;;6254696;22;20189;-84
2022/06/24 08:36:01;;;;;;;0.20;0.20;;;;;;;;;;6150665;23;20169;-83
2022/06/24 08:38:30;;;;;;;0.20;0.20;;;;;;;;;;6253807;22;20178;-83
2022/06/24 08:41:07;;;;;;;0.20;0.20;;;;;;;;;;6148115;23;20251;-84
2022/06/24 08:43:37;;;;;;;0.20;0.20;;;;;;;;;;6255069;22;20178;-85
2022/06/24 08:46:06;;;;;;;0.20;0.20;;;;;;;;;;6255205;22;20190;-85
2022/06/24 08:48:39;;;;;;;0.20;0.20;;;;;;;;;;6254729;22;20245;-85
2022/06/24 08:51:08;;;;;;;0.20;0.20;;;;;;;;;;6255079;22;20175;-84
2022/06/24 08:53:38;;;;;;;0.30;0.30;;;;;;;;;;6151968;23;20184;-84
2022/06/24 08:56:07;;;;;;;0.30;0.30;;;;;;;;;;6255092;22;20204;-84
2022/06/24 08:58:38;;;;;;;0.30;0.30;;;;;;;;;;6254136;22;20182;-84
2022/06/24 09:01:15;;;;;;;0.30;0.30;;;;;;;;;;6254589;22;20205;-84
2022/06/24 09:03:44;;;;;;;0.30;0.30;;;;;;;;;;6254716;22;20205;-84
2022/06/24 09:06:14;;;;;;;0.20;0.20;;;;;;;;;;6255488;22;20187;-84
2022/06/24 09:08:46;;;;;;;0.20;0.20;;;;;;;;;;6151697;23;20193;-84
2022/06/24 09:11:15;;;;;;;0.30;0.30;;;;;;;;;;6254290;22;20183;-84
2022/06/24 09:13:46;;;;;;;0.30;0.30;;;;;;;;;;6151922;23;20179;-84
2022/06/24 09:16:17;;;;;;;0.30;0.30;;;;;;;;;;6254857;22;20174;-84
2022/06/24 09:18:51;;;;;;;0.30;0.30;;;;;;;;;;6152232;23;20174;-84
2022/06/24 09:21:24;;;;;;;0.30;0.30;;;;;;;;;;6152503;23;20209;-84
2022/06/24 09:23:53;;;;;;;0.30;0.30;;;;;;;;;;6151828;23;20173;-84
2022/06/24 09:26:32;;;;;;;0.20;0.20;;;;;;;;;;6255391;22;20186;-84
2022/06/24 09:29:02;;;;;;;0.20;0.20;;;;;;;;;;6255149;22;20201;-84
2022/06/24 09:31:34;;;;;;;0.30;0.30;;;;;;;;;;6256076;22;20180;-83
2022/06/24 09:34:10;;;;;;;0.20;0.20;;;;;;;;;;6255359;22;20184;-84
2022/06/24 09:36:39;;;;;;;0.30;0.30;;;;;;;;;;6255532;22;20179;-84
2022/06/24 09:39:09;;;;;;;0.30;0.30;;;;;;;;;;6151979;23;20233;-83
2022/06/24 09:41:44;;;;;;;0.37;0.37;;;;;;;;;;6255453;22;20208;-83
2022/06/24 09:44:14;;;;;;;1.07;1.07;;;;;;;;;;6255131;22;20179;-84
2022/06/24 09:46:43;;;;;;;0.40;0.40;;;;;;;;;;6254806;22;20189;-83
2022/06/24 09:49:13;;;;;;;0.30;0.30;;;;;;;;;;6151877;23;20202;-83
2022/06/24 09:51:43;;;;;;;1.27;1.27;;;;;;;;;;6255338;22;20274;-83
2022/06/24 09:54:12;;;;;;;0.30;0.30;;;;;;;;;;6152035;22;20198;-83
2022/06/24 09:56:41;;;;;;;0.30;0.30;;;;;;;;;;6254815;22;20186;-83
2022/06/24 10:02:14;;;;;;;0.30;0.30;;;;;;;;;;6213150;23;20177;-83
2022/06/24 10:04:48;;;;;;;0.70;0.70;;;;;;;;;;6241012;22;20205;-84
2022/06/24 10:07:17;;;;;;;0.30;0.30;;;;;;;;;;6254872;22;20183;-83
2022/06/24 10:09:46;;;;;;;0.20;0.20;;;;;;;;;;6254545;22;20281;-83
2022/06/24 10:12:15;;;;;;;0.30;0.30;;;;;;;;;;6152129;23;20184;-83
2022/06/24 10:14:43;;;;;;;0.30;0.30;;;;;;;;;;6255133;22;20184;-83
2022/06/24 10:17:13;;;;;;;0.20;0.20;;;;;;;;;;6151939;23;20168;-83
2022/06/24 10:19:42;;;;;;;0.30;0.30;;;;;;;;;;6255035;22;20180;-83
2022/06/24 10:22:10;;;;;;;0.30;0.30;;;;;;;;;;6152670;23;20172;-84
2022/06/24 10:24:43;;;;;;;0.37;0.37;;;;;;;;;;6255464;22;20172;-83
2022/06/24 10:27:11;;;;;;;0.30;0.30;;;;;;;;;;6152899;22;20171;-83
2022/06/24 10:29:39;;;;;;;0.30;0.30;;;;;;;;;;6152391;23;20184;-84
2022/06/24 10:32:09;;;;;;;0.30;0.30;;;;;;;;;;6255447;22;20180;-84
2022/06/24 10:34:44;;;;;;;0.30;0.30;;;;;;;;;;6254537;22;20179;-83
2022/06/24 10:37:26;;;;;;;0.30;0.30;;;;;;;;;;6254745;22;20195;-83
2022/06/24 10:39:57;;;;;;;0.30;0.30;;;;;;;;;;6255009;22;20209;-84
2022/06/24 10:42:26;;;;;;;6.20;5.57;;;;;;;;;;6254508;22;20210;-83
2022/06/24 10:44:56;;;;;;;4.53;3.93;;;;;;;;;;6254725;22;20199;-82
2022/06/24 10:47:46;;;;;;;3.63;2.63;;;;;;;;;;6256496;22;20182;-83
2022/06/24 10:50:20;;;;;;;8.67;6.97;;;;;;;;;;6238195;22;20208;-83
2022/06/24 10:53:00;;;;;;;5.07;3.77;;;;;;;;;;6153457;22;20178;-83
2022/06/24 10:55:36;;;;;;;7.93;7.17;;;;;;;;;;6152908;23;20168;-83
2022/06/24 10:58:05;;;;;;;9.60;6.00;;;;;;;;;;6153805;23;20360;-84
2022/06/24 11:00:51;;;;;;;8.43;6.87;;;;;;;;;;6152771;22;20196;-83
2022/06/24 11:03:31;;;;;;;4.57;3.63;;;;;;;;;;6256263;22;20203;-83
2022/06/24 11:06:01;;;;;;;4.97;4.23;;;;;;;;;;6256431;22;20179;-83
2022/06/24 11:08:30;;;;;;;5.60;4.33;;;;;;;;;;6257102;22;20211;-85
2022/06/24 11:10:58;;;;;;;3.00;2.70;;;;;;;;;;6257347;22;20218;-84
2022/06/24 11:13:27;;;;;;;3.57;3.30;;;;;;;;;;6257402;22;20175;-83
2022/06/24 11:15:58;;;;;;;4.10;2.93;;;;;;;;;;6153206;23;20171;-83
2022/06/24 11:18:29;;;;;;;4.80;3.63;;;;;;;;;;6257177;22;20174;-83
2022/06/24 11:21:01;;;;;;;3.80;2.63;;;;;;;;;;6257154;22;20258;-83
2022/06/24 11:23:31;;;;;;;2.33;2.13;;;;;;;;;;6257203;22;20174;-84
2022/06/24 11:26:02;;;;;;;6.33;3.77;;;;;;;;;;6256760;22;20182;-84
2022/06/24 11:28:32;;;;;;;3.83;3.13;;;;;;;;;;6257631;22;20185;-84
2022/06/24 11:31:15;;;;;;;7.07;5.27;;;;;;;;;;6256299;22;20204;-83
2022/06/24 11:33:44;;;;;;;5.33;4.57;;;;;;;;;;6256553;22;20179;-83
2022/06/24 11:36:14;;;;;;;3.63;3.33;;;;;;;;;;6256309;22;20182;-83
2022/06/24 11:39:03;;;;;;;7.67;3.73;;;;;;;;;;6153524;23;20176;-83
2022/06/24 11:41:37;;;;;;;4.93;3.60;;;;;;;;;;6236778;22;20187;-83
2022/06/24 11:44:34;;;;;;;4.07;3.27;;;;;;;;;;6255279;22;20179;-84
2022/06/24 11:47:02;;;;;;;12.70;3.10;;;;;;;;;;6150225;23;20175;-83
2022/06/24 11:49:32;;;;;;;5.30;3.83;;;;;;;;;;6254777;22;20206;-83
2022/06/24 11:52:02;;;;;;;3.80;3.00;;;;;;;;;;6254839;22;20180;-84
2022/06/24 11:54:32;;;;;;;14.67;1.53;;;;;;;;;;6258001;22;20183;-84
2022/06/24 11:57:02;;;;;;;6.10;4.77;;;;;;;;;;6151674;23;20230;-83
2022/06/24 11:59:31;;;;;;;5.67;3.93;;;;;;;;;;6254021;22;20208;-83
2022/06/24 12:02:02;;;;;;;2.13;1.93;;;;;;;;;;6253482;22;20183;-84
2022/06/24 12:04:32;;;;;;;5.33;4.83;;;;;;;;;;6253942;22;20210;-84
2022/06/24 12:07:04;;;;;;;2.30;1.93;;;;;;;;;;6252842;22;20248;-83
2022/06/24 12:09:33;;;;;;;2.83;2.60;;;;;;;;;;6252638;22;20230;-84
2022/06/24 12:12:10;;;;;;;1.70;1.53;;;;;;;;;;6253978;22;20211;-84
2022/06/24 12:14:39;;;;;;;11.27;8.90;;;;;;;;;;6253629;22;20243;-84
2022/06/24 12:17:11;;;;;;;2.53;2.33;;;;;;;;;;6150359;23;20195;-84
2022/06/24 12:19:58;;;;;;;0.53;0.53;;;;;;;;;;6254147;22;20175;-83
2022/06/24 12:22:27;;;;;;;5.77;4.27;;;;;;;;;;6254193;22;20465;-83
2022/06/24 12:25:02;;;;;;;5.37;3.90;;;;;;;;;;6254175;22;20179;-84
2022/06/24 12:27:36;;;;;;;3.00;2.80;;;;;;;;;;6253615;22;20245;-83
2022/06/24 12:30:05;;;;;;;10.63;4.73;;;;;;;;;;6151299;23;20195;-84
2022/06/24 12:32:50;;;;;;;2.80;2.60;;;;;;;;;;6252750;22;20198;-84
2022/06/24 12:35:30;;;;;;;5.17;3.63;;;;;;;;;;6253515;22;20270;-84
2022/06/24 12:38:00;;;;;;;3.63;2.97;;;;;;;;;;6253388;22;20183;-84
2022/06/24 12:40:28;;;;;;;7.50;2.70;;;;;;;;;;6252833;22;20174;-84
2022/06/24 12:43:09;;;;;;;7.57;3.47;;;;;;;;;;6251682;22;20178;-84
2022/06/24 12:45:38;;;;;;;13.73;4.93;;;;;;;;;;6253019;22;20241;-83
2022/06/24 12:51:00;;;;;;;3.43;2.50;;;;;;;;;;6255263;22;20195;-83
2022/06/24 12:53:29;;;;;;;4.83;4.00;;;;;;;;;;6152679;23;20171;-84
2022/06/24 12:56:00;;;;;;;3.63;2.53;;;;;;;;;;6255874;22;20187;-83
2022/06/24 12:58:30;;;;;;;3.77;2.83;;;;;;;;;;6153152;23;20175;-84
2022/06/24 13:00:59;;;;;;;3.70;2.40;;;;;;;;;;6255283;22;20234;-84
2022/06/24 13:03:28;;;;;;;4.73;3.50;;;;;;;;;;6255862;22;20207;-84
2022/06/24 13:05:57;;;;;;;3.07;2.87;;;;;;;;;;6255759;22;20282;-84
2022/06/24 13:08:25;;;;;;;4.13;2.80;;;;;;;;;;6152047;23;20168;-84
2022/06/24 13:10:54;;;;;;;2.00;1.87;;;;;;;;;;6254460;22;20192;-83
2022/06/24 13:13:22;;;;;;;4.57;2.67;;;;;;;;;;6152297;23;20183;-82
2022/06/24 13:15:53;;;;;;;18.40;13.57;;;;;;;;;;6254962;22;20177;-83
2022/06/24 13:18:25;;;;;;;16.77;13.67;;;;;;;;;;6256632;22;20191;-83
2022/06/24 13:20:53;;;;;;;6.10;3.70;;;;;;;;;;6281847;22;20176;-83
2022/06/24 13:23:23;;;;;;;4.13;3.73;;;;;;;;;;6255438;22;20198;-83
2022/06/24 13:25:51;;;;;;;4.50;3.93;;;;;;;;;;6151233;23;20176;-82
2022/06/24 13:28:20;;;;;;;2.60;2.40;;;;;;;;;;6150824;23;20169;-83
2022/06/24 13:30:48;;;;;;;7.43;3.50;;;;;;;;;;6255118;22;20203;-84
2022/06/24 13:33:19;;;;;;;1.73;1.63;;;;;;;;;;6152561;23;20195;-83
2022/06/24 13:35:48;;;;;;;8.83;6.20;;;;;;;;;;6256392;22;20180;-83
2022/06/24 13:38:17;;;;;;;0.93;0.93;;;;;;;;;;6256681;22;20211;-84
2022/06/24 13:40:45;;;;;;;2.47;1.97;;;;;;;;;;6255607;22;20188;-84
2022/06/24 13:43:23;;;;;;;3.37;3.07;;;;;;;;;;6254103;22;20202;-83
2022/06/24 13:45:52;;;;;;;5.20;4.70;;;;;;;;;;6256385;22;20187;-84
2022/06/24 13:48:22;;;;;;;12.73;9.53;;;;;;;;;;6255391;22;20176;-84
2022/06/24 13:53:42;;;;;;;10.50;5.63;;;;;;;;;;6140393;23;20176;-83
2022/06/24 13:56:13;;;;;;;10.47;5.33;;;;;;;;;;6254582;22;20194;-83
2022/06/24 13:58:41;;;;;;;7.40;3.93;;;;;;;;;;6151543;23;20176;-83
2022/06/24 14:01:10;;;;;;;2.63;2.27;;;;;;;;;;6254058;22;20207;-83
2022/06/24 14:03:40;;;;;;;2.23;1.30;;;;;;;;;;6252377;22;20203;-83
2022/06/24 14:06:09;;;;;;;1.83;1.73;;;;;;;;;;6252162;22;20185;-84
2022/06/24 14:08:38;;;;;;;3.93;1.97;;;;;;;;;;6254267;22;20217;-84
2022/06/24 14:11:06;;;;;;;2.20;1.60;;;;;;;;;;6254315;22;20204;-84
2022/06/24 14:13:35;;;;;;;1.63;1.53;;;;;;;;;;6151386;23;20170;-85
2022/06/24 14:16:06;;;;;;;3.00;2.50;;;;;;;;;;6253315;22;20181;-85
2022/06/24 14:19:00;;;;;;;3.90;3.07;;;;;;;;;;6254467;22;20284;-84
2022/06/24 14:21:28;;;;;;;2.93;2.60;;;;;;;;;;6253039;22;20172;-83
2022/06/24 14:26:46;;;;;;;8.17;4.23;;;;;;;;;;6149094;22;20180;-83
2022/06/24 14:29:14;;;;;;;4.93;3.90;;;;;;;;;;6252361;22;20183;-82
2022/06/24 14:31:46;;;;;;;4.70;4.30;;;;;;;;;;6148930;23;20198;-83
2022/06/24 14:34:16;;;;;;;10.63;2.27;;;;;;;;;;6149498;23;20188;-83
2022/06/24 14:36:44;;;;;;;2.63;2.27;;;;;;;;;;6251995;22;20180;-83
2022/06/24 14:41:59;;;;;;;11.10;6.40;;;;;;;;;;6251444;22;20179;-83
2022/06/24 14:44:28;;;;;;;4.67;3.33;;;;;;;;;;6253004;22;20185;-83
2022/06/24 14:46:56;;;;;;;2.83;1.70;;;;;;;;;;6252734;22;20226;-84
2022/06/24 14:49:26;;;;;;;2.90;1.73;;;;;;;;;;6149476;23;20174;-83
2022/06/24 14:51:58;;;;;;;2.20;2.00;;;;;;;;;;6251925;22;20195;-83
2022/06/24 14:54:27;;;;;;;2.03;1.30;;;;;;;;;;6251830;22;20184;-83
2022/06/24 14:56:56;;;;;;;1.97;1.83;;;;;;;;;;6251646;22;20204;-84
2022/06/24 14:59:25;;;;;;;5.87;2.27;;;;;;;;;;6148243;22;20226;-83
2022/06/24 15:01:55;;;;;;;6.87;3.97;;;;;;;;;;6228644;22;20286;-84
2022/06/24 15:04:24;;;;;;;4.67;2.73;;;;;;;;;;6148961;23;20200;-84
2022/06/24 15:06:54;;;;;;;2.00;1.57;;;;;;;;;;6252089;22;20177;-84
2022/06/24 15:09:22;;;;;;;6.73;4.07;;;;;;;;;;6251817;22;20209;-83
2022/06/24 15:11:52;;;;;;;2.40;1.93;;;;;;;;;;6252464;22;20196;-82
2022/06/24 15:14:20;;;;;;;1.17;1.07;;;;;;;;;;6253856;22;20207;-82
2022/06/24 15:16:49;;;;;;;8.27;1.17;;;;;;;;;;6252054;22;20188;-83
2022/06/24 15:19:17;;;;;;;4.37;2.50;;;;;;;;;;6250698;22;20241;-82
2022/06/24 15:21:49;;;;;;;6.77;3.57;;;;;;;;;;6253432;22;20176;-84
2022/06/24 15:24:22;;;;;;;2.53;1.53;;;;;;;;;;6253342;22;20222;-82
2022/06/24 15:26:51;;;;;;;2.10;1.90;;;;;;;;;;6152860;23;20169;-82
2022/06/24 15:29:26;;;;;;;2.80;1.27;;;;;;;;;;6230500;22;20186;-81
2022/06/24 15:31:55;;;;;;;1.30;1.20;;;;;;;;;;6255332;22;20193;-82